Time;durP1;ratioP1;P1;durP2;ratioP2;P2;SDS_P1;SDS_P2;PMS_P1;PMS_P2;Temp;Humidity;BMP_temperature;BMP_pressure;BME280_temperature;BME280_humidity;BME280_pressure;Samples;Min_cycle;Max_cycle;Signal;HPM_P1;HPM_P2
2022/11/17 03:33:31;;;;;;;7.73;6.17;;;;;;;7.77;75.41;94758.78;6214317;22;20361;-79
2022/11/17 03:36:03;;;;;;;8.27;6.05;;;;;;;7.79;75.59;94730.81;6215639;23;20257;-79
2022/11/17 03:38:35;;;;;;;8.90;5.30;;;;;;;7.78;75.27;94724.06;6215676;23;20033;-79
2022/11/17 03:41:06;;;;;;;8.27;6.05;;;;;;;7.78;75.19;94723.22;6213830;23;20027;-80
2022/11/17 03:43:34;;;;;;;7.65;5.90;;;;;;;7.77;74.95;94719.06;6212999;23;20376;-79
2022/11/17 03:46:07;;;;;;;7.75;5.72;;;;;;;7.75;74.99;94739.25;6213229;23;20024;-80
2022/11/17 03:48:40;;;;;;;9.70;5.78;;;;;;;7.74;75.21;94743.66;6213701;23;20032;-80
2022/11/17 03:51:13;;;;;;;7.25;6.13;;;;;;;7.75;75.18;94745.22;6215616;23;20017;-80
2022/11/17 03:53:41;;;;;;;10.65;5.25;;;;;;;7.77;74.76;94758.78;6214617;23;20491;-80
2022/11/17 03:56:22;;;;;;;6.30;4.20;;;;;;;7.82;75.16;94768.53;6215107;23;20025;-80
2022/11/17 03:58:55;;;;;;;7.55;4.65;;;;;;;7.88;75.18;94772.09;6215658;23;20044;-80
2022/11/17 04:01:24;;;;;;;8.13;4.15;;;;;;;7.95;74.26;94776.25;6214997;23;20457;-79
2022/11/17 04:03:53;;;;;;;4.50;3.92;;;;;;;7.99;73.80;94780.00;6215089;23;20067;-80
2022/11/17 04:06:21;;;;;;;4.95;4.38;;;;;;;8.02;73.84;94784.81;6215511;23;20020;-80
2022/11/17 04:08:48;;;;;;;4.35;3.95;;;;;;;8.06;73.46;94782.56;6215212;23;20031;-80
2022/11/17 04:16:47;;;;;;;6.85;4.35;;;;;;;8.11;73.44;94774.94;6215671;23;20017;-80
2022/11/17 04:19:16;;;;;;;5.18;4.57;;;;;;;8.09;73.60;94799.50;6214738;23;20021;-80
2022/11/17 04:21:43;;;;;;;6.57;5.20;;;;;;;8.13;74.38;94800.69;6215088;23;20519;-79
2022/11/17 04:24:11;;;;;;;5.00;4.45;;;;;;;8.17;73.76;94788.88;6215271;23;20353;-79
2022/11/17 04:29:24;;;;;;;4.75;4.07;;;;;;;8.24;73.47;94811.22;6214673;23;20036;-80
2022/11/17 04:31:51;;;;;;;5.75;4.40;;;;;;;8.28;73.11;94826.38;6214705;23;20460;-80
2022/11/17 04:34:20;;;;;;;5.43;4.85;;;;;;;8.32;73.16;94833.53;6214722;23;20027;-80
2022/11/17 04:36:48;;;;;;;5.20;4.40;;;;;;;8.38;72.84;94826.72;6214476;23;20020;-80
2022/11/17 04:39:15;;;;;;;4.53;3.60;;;;;;;8.42;72.78;94812.31;6214660;23;20024;-79
2022/11/17 04:42:00;;;;;;;5.35;3.58;;;;;;;8.45;72.56;94798.88;6215181;23;20017;-79
2022/11/17 04:44:29;;;;;;;4.93;3.38;;;;;;;8.45;72.91;94804.88;6214879;23;20452;-80
2022/11/17 04:46:57;;;;;;;4.57;3.65;;;;;;;8.43;73.27;94786.09;6214917;23;20021;-79
2022/11/17 04:49:26;;;;;;;4.72;3.45;;;;;;;8.45;73.69;94783.31;6214529;23;20333;-80
2022/11/17 04:51:54;;;;;;;3.38;3.00;;;;;;;8.46;73.84;94777.09;6215261;23;20356;-80
2022/11/17 04:54:24;;;;;;;3.78;3.47;;;;;;;8.49;74.21;94781.09;6214486;23;20017;-80
2022/11/17 04:56:52;;;;;;;3.85;3.42;;;;;;;8.51;74.65;94774.66;6214920;23;20028;-80
2022/11/17 04:59:19;;;;;;;4.28;3.60;;;;;;;8.55;74.87;94781.03;6214605;23;20020;-80
2022/11/17 05:01:47;;;;;;;6.40;4.05;;;;;;;8.60;74.75;94788.19;6214631;23;20012;-80
2022/11/17 05:04:54;;;;;;;3.90;3.58;;;;;;;8.60;74.64;94781.16;6216852;23;20025;-80
2022/11/17 05:07:07;;;;;;;5.10;3.88;;;;;;;8.64;74.62;94774.53;6231623;23;20025;-80
2022/11/17 05:09:35;;;;;;;5.93;3.63;;;;;;;8.65;74.24;94768.31;6225832;23;20016;-79
2022/11/17 05:14:49;;;;;;;5.47;3.63;;;;;;;8.68;74.91;94761.91;6215304;23;20026;-80
2022/11/17 05:17:16;;;;;;;3.95;3.58;;;;;;;8.71;74.68;94769.28;6214750;23;20020;-80
2022/11/17 05:19:45;;;;;;;6.50;4.45;;;;;;;8.72;74.66;94755.25;6214591;23;20020;-80
2022/11/17 05:25:02;;;;;;;4.38;3.75;;;;;;;8.65;74.01;94757.91;6214579;23;20027;-79
2022/11/17 05:27:30;;;;;;;5.43;4.38;;;;;;;8.62;74.04;94763.56;6215908;23;20020;-80
2022/11/17 05:30:02;;;;;;;6.50;3.83;;;;;;;8.61;74.48;94763.75;6218954;23;20023;-79
2022/11/17 05:32:29;;;;;;;6.57;4.65;;;;;;;8.59;74.63;94769.19;6222097;23;20067;-81
2022/11/17 05:34:57;;;;;;;6.45;4.68;;;;;;;8.54;74.36;94763.81;6232426;22;20008;-81
2022/11/17 05:37:26;;;;;;;5.65;4.18;;;;;;;8.48;74.57;94776.88;6231947;23;20076;-81
2022/11/17 05:39:56;;;;;;;4.07;3.67;;;;;;;8.42;74.59;94781.94;6217828;23;20020;-81
2022/11/17 05:42:23;;;;;;;4.72;4.13;;;;;;;8.38;74.84;94772.94;6227832;23;20017;-81
2022/11/17 05:44:51;;;;;;;4.25;3.85;;;;;;;8.36;75.17;94781.94;6221248;23;20016;-80
2022/11/17 05:47:18;;;;;;;7.15;4.55;;;;;;;8.36;75.30;94787.94;6226816;23;20067;-81
2022/11/17 06:08:32;;;;;;;5.70;4.33;;;;;;;8.24;75.50;94797.41;6216544;22;20000;-81
2022/11/17 06:22:30;;;;;;;5.20;4.50;;;;;;;8.28;75.54;94777.00;6227869;22;20138;-81
2022/11/17 06:25:16;;;;;;;5.40;4.90;;;;;;;8.29;75.29;94773.41;6231116;23;20036;-80
2022/11/17 06:27:48;;;;;;;6.03;5.03;;;;;;;8.31;75.52;94772.19;6230299;23;20027;-81
2022/11/17 06:30:20;;;;;;;7.57;5.75;;;;;;;8.35;75.22;94775.16;6229326;23;20021;-81
2022/11/17 06:32:50;;;;;;;6.30;5.70;;;;;;;8.36;75.03;94790.53;6227907;23;20012;-80
2022/11/17 06:35:19;;;;;;;9.20;5.90;;;;;;;8.35;74.95;94794.16;6227772;23;20095;-80
2022/11/17 06:37:48;;;;;;;6.78;5.78;;;;;;;8.36;75.10;94789.75;6227549;23;20024;-80
2022/11/17 06:40:20;;;;;;;7.63;5.63;;;;;;;8.36;75.11;94789.75;6227485;23;20028;-81
2022/11/17 06:43:11;;;;;;;7.07;6.38;;;;;;;8.39;74.83;94791.91;6226593;23;20044;-81
2022/11/17 06:45:41;;;;;;;6.35;5.65;;;;;;;8.41;75.29;94782.13;6226993;23;20012;-80
2022/11/17 06:48:11;;;;;;;8.20;5.90;;;;;;;8.44;75.08;94781.72;6226495;23;20043;-81
2022/11/17 06:50:41;;;;;;;7.60;6.75;;;;;;;8.46;75.06;94782.28;6225279;23;20096;-80
2022/11/17 06:53:12;;;;;;;7.85;7.10;;;;;;;8.48;74.73;94782.06;6224148;23;20012;-80
2022/11/17 06:55:42;;;;;;;7.97;6.20;;;;;;;8.48;74.31;94793.25;6224371;23;20017;-80
2022/11/17 06:58:11;;;;;;;7.88;6.32;;;;;;;8.48;74.34;94795.84;6225727;23;20472;-80
2022/11/17 07:00:40;;;;;;;6.78;6.10;;;;;;;8.49;74.21;94797.47;6224173;23;20456;-81
2022/11/17 07:03:11;;;;;;;7.05;6.32;;;;;;;8.50;74.91;94804.25;6224839;23;20396;-80
2022/11/17 07:05:39;;;;;;;6.90;6.30;;;;;;;8.54;74.61;94789.03;6224384;23;20024;-80
2022/11/17 07:08:09;;;;;;;7.00;6.28;;;;;;;8.56;74.52;94794.81;6223248;23;20483;-80
2022/11/17 07:10:42;;;;;;;8.85;6.47;;;;;;;8.54;74.44;94797.59;6222270;23;20405;-80
2022/11/17 07:13:16;;;;;;;6.20;5.60;;;;;;;8.54;74.36;94789.81;6222417;23;20040;-80
2022/11/17 07:15:45;;;;;;;6.78;6.10;;;;;;;8.52;74.58;94771.03;6222923;23;20017;-80
2022/11/17 07:18:13;;;;;;;7.22;5.90;;;;;;;8.55;74.66;94772.41;6223077;23;20012;-80
2022/11/17 07:20:42;;;;;;;10.25;7.10;;;;;;;8.59;75.24;94784.78;6223756;23;20016;-80
2022/11/17 07:23:11;;;;;;;6.88;6.07;;;;;;;8.63;75.63;94788.53;6224596;23;20013;-80
2022/11/17 07:25:39;;;;;;;7.50;6.72;;;;;;;8.65;75.08;94794.31;6223630;23;20357;-80
2022/11/17 07:28:10;;;;;;;7.50;6.72;;;;;;;8.70;75.96;94800.69;6222939;23;20017;-81
2022/11/17 07:30:38;;;;;;;7.65;6.38;;;;;;;8.73;75.32;94795.84;6224156;23;20021;-80
2022/11/17 07:33:07;;;;;;;7.63;6.03;;;;;;;8.75;75.11;94782.66;6222683;23;20040;-81
2022/11/17 07:35:36;;;;;;;8.07;6.78;;;;;;;8.77;75.04;94791.03;6223876;23;20020;-80
2022/11/17 07:38:05;;;;;;;8.02;6.10;;;;;;;8.82;75.05;94788.56;6223403;23;20026;-80
2022/11/17 07:40:34;;;;;;;5.70;5.07;;;;;;;8.86;74.61;94784.53;6222791;23;20559;-80
2022/11/17 07:43:03;;;;;;;6.78;5.85;;;;;;;8.89;74.56;94781.50;6223285;23;20051;-80
2022/11/17 07:45:34;;;;;;;6.82;5.75;;;;;;;8.91;74.20;94784.69;6223480;23;20017;-80
2022/11/17 07:48:04;;;;;;;8.30;6.68;;;;;;;8.93;74.23;94774.06;6223381;23;20077;-80
2022/11/17 07:50:34;;;;;;;8.63;6.18;;;;;;;8.90;74.07;94764.91;6224013;23;20021;-81
2022/11/17 07:53:02;;;;;;;6.88;6.10;;;;;;;8.89;74.52;94763.28;6224050;23;20033;-80
2022/11/17 07:55:30;;;;;;;5.28;4.78;;;;;;;8.91;74.56;94757.88;6224725;23;20012;-80
2022/11/17 07:58:01;;;;;;;7.45;5.75;;;;;;;8.93;75.31;94764.47;6237733;22;20016;-81
2022/11/17 08:00:32;;;;;;;6.28;4.93;;;;;;;9.01;76.12;94768.59;6244074;22;20024;-80
2022/11/17 08:03:03;;;;;;;6.47;5.57;;;;;;;9.07;75.60;94765.91;6232261;23;20058;-80
2022/11/17 08:05:35;;;;;;;5.95;5.22;;;;;;;9.11;74.81;94775.88;6226866;23;20020;-80
2022/11/17 08:08:12;;;;;;;6.22;5.40;;;;;;;9.16;75.31;94778.59;6225518;23;20038;-80
2022/11/17 08:10:41;;;;;;;7.20;4.97;;;;;;;9.20;75.66;94766.75;6226825;23;20020;-80
2022/11/17 08:13:11;;;;;;;6.05;4.72;;;;;;;9.21;74.92;94766.56;6226789;23;20039;-81
2022/11/17 08:15:40;;;;;;;5.20;4.70;;;;;;;9.20;74.37;94756.34;6228340;23;20081;-81
2022/11/17 08:18:10;;;;;;;4.35;3.92;;;;;;;9.19;74.27;94762.59;6226048;23;20039;-80
2022/11/17 08:20:39;;;;;;;4.85;4.40;;;;;;;9.20;74.51;94769.38;6227475;23;20020;-80
2022/11/17 08:23:08;;;;;;;8.07;4.90;;;;;;;9.25;74.74;94766.91;6235205;23;20047;-80
2022/11/17 08:25:36;;;;;;;4.78;4.30;;;;;;;9.33;74.55;94763.22;6231314;23;20036;-81
2022/11/17 08:28:05;;;;;;;5.53;4.18;;;;;;;9.40;74.76;94769.94;6230755;23;20028;-81
2022/11/17 08:30:34;;;;;;;6.15;4.18;;;;;;;9.45;74.40;94751.84;6230867;23;20023;-80
2022/11/17 08:33:03;;;;;;;5.05;4.65;;;;;;;9.48;73.91;94756.59;6234205;23;20043;-80
2022/11/17 08:35:34;;;;;;;5.88;4.60;;;;;;;9.55;74.45;94787.75;6231075;23;20380;-81
2022/11/17 08:38:05;;;;;;;6.85;5.38;;;;;;;9.58;74.01;94786.53;6229339;23;20086;-80
2022/11/17 08:40:34;;;;;;;6.70;4.88;;;;;;;9.61;73.85;94786.09;6227854;23;20036;-80
2022/11/17 08:43:04;;;;;;;7.97;5.20;;;;;;;9.61;74.10;94791.31;6227495;23;20023;-80
2022/11/17 08:45:32;;;;;;;7.45;5.88;;;;;;;9.63;73.97;94790.06;6227709;23;20351;-80
2022/11/17 08:48:02;;;;;;;5.90;5.30;;;;;;;9.64;73.95;94780.44;6227449;23;20071;-81
2022/11/17 08:50:34;;;;;;;7.32;5.28;;;;;;;9.67;73.95;94788.59;6226110;23;20028;-80
2022/11/17 08:53:02;;;;;;;5.88;5.28;;;;;;;9.67;73.84;94774.81;6226398;23;20012;-81
2022/11/17 08:55:32;;;;;;;6.53;4.57;;;;;;;9.67;73.87;94782.63;6225592;23;20021;-80
2022/11/17 08:58:08;;;;;;;5.55;4.78;;;;;;;9.71;74.11;94773.34;6226360;23;20074;-80
2022/11/17 09:00:37;;;;;;;5.07;4.57;;;;;;;9.73;73.86;94783.53;6225931;23;20043;-80
2022/11/17 09:03:06;;;;;;;6.78;5.10;;;;;;;9.74;73.83;94774.72;6225397;23;20075;-80
2022/11/17 09:05:39;;;;;;;6.05;4.82;;;;;;;9.76;74.22;94777.91;6225499;23;20016;-80
2022/11/17 09:08:09;;;;;;;;;;;;;;;9.81;74.42;94778.00;6225812;23;20024;-80
2022/11/17 09:10:59;;;;;;;6.20;4.43;;;;;;;9.81;73.78;94778.81;6226061;23;20275;-80
2022/11/17 09:13:28;;;;;;;9.63;5.90;;;;;;;9.82;73.84;94766.59;6226284;23;20028;-80
2022/11/17 09:16:02;;;;;;;5.85;4.88;;;;;;;9.83;74.21;94768.16;6227255;23;20098;-81
2022/11/17 09:18:33;;;;;;;6.00;5.00;;;;;;;9.85;73.86;94782.56;6226564;23;20055;-80
2022/11/17 09:21:06;;;;;;;6.50;4.85;;;;;;;9.83;73.60;94776.78;6225885;23;20013;-81
2022/11/17 09:23:35;;;;;;;10.52;6.35;;;;;;;9.84;73.91;94786.19;6225874;23;20021;-80
2022/11/17 09:26:06;;;;;;;8.48;5.82;;;;;;;9.87;74.45;94787.56;6226169;23;20055;-80
2022/11/17 09:28:36;;;;;;;7.80;4.03;;;;;;;9.90;73.96;94793.13;6227205;23;20027;-81
2022/11/17 09:31:09;;;;;;;7.55;4.00;;;;;;;9.93;73.63;94804.09;6226657;23;20352;-80
2022/11/17 09:33:39;;;;;;;5.65;4.47;;;;;;;9.95;73.54;94799.44;6222642;22;20017;-77
2022/11/17 09:36:08;;;;;;;6.15;4.43;;;;;;;9.98;73.86;94797.22;6220867;23;20092;-79
2022/11/17 09:38:36;;;;;;;5.75;4.75;;;;;;;10.01;73.63;94806.38;6220818;23;20025;-77
2022/11/17 09:41:18;;;;;;;5.35;4.72;;;;;;;10.05;73.50;94815.34;6221464;23;20025;-79
2022/11/17 09:43:52;;;;;;;6.00;4.45;;;;;;;10.08;74.29;94822.75;6226322;23;20033;-76
2022/11/17 09:46:24;;;;;;;4.45;3.40;;;;;;;10.12;73.82;94803.00;6226856;23;20077;-78
2022/11/17 09:48:55;;;;;;;;;;;;;;;10.18;73.36;94807.34;6227214;23;20076;-75
2022/11/17 09:51:29;;;;;;;0.63;0.45;;;;;;;10.22;71.21;94808.47;6220736;23;19916;-80
2022/11/17 09:54:05;;;;;;;9.93;1.05;;;;;;;10.31;70.49;94816.81;6220493;23;20020;-77
2022/11/17 09:56:33;;;;;;;0.55;0.40;;;;;;;10.39;70.44;94818.31;6222142;23;20028;-77
2022/11/17 09:59:10;;;;;;;2.55;0.47;;;;;;;10.46;70.11;94832.03;6222378;23;20025;-78
2022/11/17 10:01:38;;;;;;;0.60;0.20;;;;;;;10.54;70.00;94831.72;6223521;23;20027;-77
2022/11/17 10:04:11;;;;;;;1.23;0.28;;;;;;;10.61;69.14;94835.00;6222516;23;20020;-76
2022/11/17 10:06:42;;;;;;;1.13;0.70;;;;;;;10.68;69.10;94827.84;6222903;23;20356;-77
2022/11/17 10:09:18;;;;;;;0.55;0.22;;;;;;;10.72;68.44;94842.03;6222822;23;20091;-78
2022/11/17 10:11:53;;;;;;;2.10;0.30;;;;;;;10.78;68.89;94831.72;6221750;23;20035;-77
2022/11/17 10:14:22;;;;;;;2.58;0.55;;;;;;;10.82;67.89;94828.44;6222599;23;20020;-77
2022/11/17 10:16:52;;;;;;;0.70;0.38;;;;;;;10.89;67.48;94838.78;6222500;23;20022;-77
2022/11/17 10:19:25;;;;;;;0.35;0.30;;;;;;;10.95;67.19;94842.28;6221418;23;20112;-77
2022/11/17 10:21:54;;;;;;;;;;;;;;;11.00;67.16;94840.59;6222471;23;20022;-76
2022/11/17 10:24:36;;;;;;;0.60;0.40;;;;;;;11.05;66.66;94845.91;6222392;23;19922;-76
2022/11/17 10:27:06;;;;;;;2.30;0.63;;;;;;;11.08;66.67;94831.59;6222156;23;20020;-77
2022/11/17 10:29:34;;;;;;;1.42;0.40;;;;;;;11.10;66.19;94835.56;6223922;23;20021;-76
2022/11/17 10:32:08;;;;;;;4.03;0.63;;;;;;;11.16;67.05;94843.53;6222422;23;20021;-78
2022/11/17 10:34:38;;;;;;;1.65;0.40;;;;;;;11.19;66.44;94841.22;6221870;23;20107;-76
2022/11/17 10:37:25;;;;;;;1.70;0.73;;;;;;;11.24;65.91;94840.53;6223329;23;20031;-77
2022/11/17 10:40:14;;;;;;;1.85;0.30;;;;;;;11.25;65.06;94844.75;6221989;23;20027;-76
2022/11/17 10:42:56;;;;;;;1.30;0.30;;;;;;;11.27;63.91;94832.28;6222425;23;20028;-77
2022/11/17 10:45:24;;;;;;;2.38;0.65;;;;;;;11.32;64.42;94822.72;6220370;23;20043;-75
2022/11/17 10:47:51;;;;;;;2.63;0.52;;;;;;;11.37;64.78;94829.06;6218485;23;20402;-75
2022/11/17 10:50:24;;;;;;;2.20;0.50;;;;;;;11.41;63.97;94840.66;6218629;23;20021;-74
2022/11/17 10:52:55;;;;;;;3.65;0.90;;;;;;;11.44;63.66;94850.66;6218743;23;20021;-75
2022/11/17 10:55:26;;;;;;;1.65;0.95;;;;;;;11.47;63.53;94844.94;6219057;23;20070;-74
2022/11/17 10:57:58;;;;;;;5.13;1.00;;;;;;;11.51;63.15;94825.19;6218566;23;20031;-76
2022/11/17 11:00:30;;;;;;;3.05;0.40;;;;;;;11.55;63.04;94826.31;6218908;23;20112;-77
2022/11/17 11:03:17;;;;;;;2.22;0.20;;;;;;;11.62;61.69;94820.97;6219638;23;20039;-77
2022/11/17 11:06:22;;;;;;;1.42;0.43;;;;;;;11.69;62.76;94829.47;6219435;23;20016;-78
2022/11/17 11:08:55;;;;;;;2.25;0.95;;;;;;;11.73;62.15;94827.97;6160246;23;20020;-77
2022/11/17 11:11:39;;;;;;;1.00;0.30;;;;;;;11.80;61.54;94836.47;6218569;23;20099;-77
2022/11/17 11:14:14;;;;;;;1.85;0.40;;;;;;;11.88;62.50;94825.69;6218837;23;20024;-75
2022/11/17 11:16:45;;;;;;;4.60;0.80;;;;;;;11.93;62.25;94823.16;6219358;23;20020;-74
2022/11/17 11:19:17;;;;;;;1.35;0.57;;;;;;;11.99;61.96;94818.03;6219657;23;20021;-75
2022/11/17 11:22:10;;;;;;;3.78;0.57;;;;;;;12.09;60.90;94815.59;6220414;23;20081;-77
2022/11/17 11:24:45;;;;;;;2.85;0.63;;;;;;;12.18;60.95;94816.81;6220169;23;20096;-75
2022/11/17 11:27:28;;;;;;;5.20;0.98;;;;;;;12.26;60.32;94819.03;6219557;23;20080;-75
2022/11/17 11:30:02;;;;;;;2.60;0.50;;;;;;;12.31;60.32;94824.34;6218700;23;20079;-76
2022/11/17 11:32:40;;;;;;;2.13;0.77;;;;;;;12.42;60.99;94824.50;6219405;23;20020;-76
2022/11/17 11:35:37;;;;;;;3.17;0.50;;;;;;;12.65;60.38;94808.66;6220508;23;20028;-76
2022/11/17 11:38:19;;;;;;;2.53;0.50;;;;;;;12.87;59.29;94821.03;6220420;23;20025;-75
2022/11/17 11:40:54;;;;;;;;;;;;;;;13.05;59.90;94819.97;6222650;23;20021;-76
2022/11/17 11:43:33;;;;;;;1.80;0.38;;;;;;;13.16;57.62;94819.06;6223050;23;19922;-79
2022/11/17 11:46:08;;;;;;;4.82;1.02;;;;;;;13.25;57.92;94806.34;6223655;23;20020;-78
2022/11/17 11:48:39;;;;;;;2.58;0.40;;;;;;;13.44;58.18;94802.44;6223530;23;20020;-76
2022/11/17 11:51:14;;;;;;;1.83;0.57;;;;;;;13.74;58.01;94798.59;6224819;23;20024;-76
2022/11/17 11:53:50;;;;;;;1.83;0.70;;;;;;;14.05;56.06;94802.34;6223554;23;20027;-78
2022/11/17 11:56:24;;;;;;;3.92;0.73;;;;;;;14.39;56.11;94800.28;6224165;23;20025;-76
2022/11/17 11:58:59;;;;;;;1.23;0.57;;;;;;;14.71;55.68;94817.09;6222234;23;20031;-77
2022/11/17 12:01:30;;;;;;;1.70;0.73;;;;;;;15.02;54.97;94807.59;6221866;23;20099;-77
2022/11/17 12:04:10;;;;;;;1.90;0.57;;;;;;;15.29;53.00;94819.84;6220417;23;20020;-76
2022/11/17 12:06:52;;;;;;;2.88;0.50;;;;;;;15.43;52.59;94800.72;6223128;23;20020;-76
2022/11/17 12:09:39;;;;;;;3.65;0.73;;;;;;;15.54;52.61;94809.44;6220379;23;20071;-77
2022/11/17 12:12:14;;;;;;;1.13;0.50;;;;;;;15.63;52.73;94802.66;6221106;23;20024;-76
2022/11/17 12:15:29;;;;;;;3.15;0.73;;;;;;;15.73;52.46;94806.41;6222044;23;20051;-76
2022/11/17 12:17:59;;;;;;;1.95;0.55;;;;;;;15.78;52.14;94809.81;6221826;23;20031;-76
2022/11/17 12:21:03;;;;;;;3.88;0.70;;;;;;;15.79;50.22;94808.78;6221568;23;20031;-77
2022/11/17 12:23:47;;;;;;;4.30;0.70;;;;;;;15.78;50.76;94803.78;6224703;23;20068;-78
2022/11/17 12:26:23;;;;;;;3.60;0.70;;;;;;;15.78;51.74;94811.66;6225194;23;20064;-77
2022/11/17 12:29:24;;;;;;;4.68;1.02;;;;;;;15.74;50.90;94810.59;6222864;23;20027;-77
2022/11/17 12:31:54;;;;;;;4.15;1.30;;;;;;;15.66;51.23;94806.59;6223808;23;20315;-79
2022/11/17 12:34:25;;;;;;;4.80;1.02;;;;;;;15.59;50.82;94814.72;6223967;23;20079;-77
2022/11/17 12:37:25;;;;;;;8.82;2.17;;;;;;;15.56;50.49;94822.31;6223560;23;20016;-76
2022/11/17 12:40:06;;;;;;;4.85;2.05;;;;;;;15.53;50.55;94817.59;6158267;23;20024;-78
2022/11/17 12:42:35;;;;;;;6.15;1.27;;;;;;;15.50;51.19;94820.72;6224256;23;20031;-76
2022/11/17 12:45:05;;;;;;;5.38;1.20;;;;;;;15.47;51.13;94811.50;6223705;23;20020;-78
2022/11/17 12:47:36;;;;;;;2.78;0.90;;;;;;;15.46;51.21;94812.56;6225180;23;20400;-76
2022/11/17 12:50:27;;;;;;;6.15;0.95;;;;;;;15.48;51.29;94828.88;6224749;23;20032;-79
2022/11/17 12:53:19;;;;;;;3.50;0.70;;;;;;;15.49;50.66;94840.16;6225425;23;20028;-77
2022/11/17 12:56:11;;;;;;;2.40;1.13;;;;;;;15.45;51.20;94843.28;6224980;23;20020;-77
2022/11/17 12:58:52;;;;;;;4.03;1.37;;;;;;;15.43;51.24;94823.59;6163385;23;20072;-77
2022/11/17 13:01:27;;;;;;;4.20;1.42;;;;;;;15.41;53.16;94830.94;6225500;23;20242;-78
2022/11/17 13:04:00;;;;;;;7.07;1.10;;;;;;;15.42;51.90;94837.78;6226204;23;20051;-75
2022/11/17 13:06:28;;;;;;;2.35;0.88;;;;;;;15.41;51.18;94836.19;6225255;23;20385;-77
2022/11/17 13:09:06;;;;;;;3.85;1.23;;;;;;;15.41;51.30;94836.19;6226780;23;20460;-79
2022/11/17 13:11:34;;;;;;;4.53;1.08;;;;;;;15.42;52.31;94853.53;6226651;23;20025;-78
2022/11/17 13:14:09;;;;;;;3.13;0.95;;;;;;;15.40;50.93;94848.53;6224891;23;20026;-76
2022/11/17 13:16:45;;;;;;;7.32;1.08;;;;;;;15.38;49.83;94840.09;6224934;23;20016;-77
2022/11/17 13:19:35;;;;;;;2.83;0.55;;;;;;;15.40;50.55;94843.28;6223813;23;20024;-76
2022/11/17 13:22:05;;;;;;;3.80;0.80;;;;;;;15.43;50.40;94840.13;6225154;23;20027;-78
2022/11/17 13:24:35;;;;;;;4.15;0.90;;;;;;;15.44;50.92;94833.84;6225157;23;20104;-78
2022/11/17 13:27:06;;;;;;;1.73;0.68;;;;;;;15.48;52.34;94833.31;6224658;23;20192;-76
2022/11/17 13:29:34;;;;;;;5.72;1.10;;;;;;;15.50;51.27;94829.38;6226096;23;20024;-77
2022/11/17 13:32:11;;;;;;;7.50;1.20;;;;;;;15.53;50.22;94828.88;6226794;23;20024;-75
2022/11/17 13:34:50;;;;;;;5.05;1.02;;;;;;;15.53;51.71;94831.53;6227552;23;20075;-80
2022/11/17 13:37:20;;;;;;;4.03;0.77;;;;;;;15.55;51.32;94826.81;6227572;23;20100;-77
2022/11/17 13:39:56;;;;;;;2.60;1.00;;;;;;;15.57;51.83;94832.59;6226252;23;20025;-78
2022/11/17 13:42:26;;;;;;;3.05;1.02;;;;;;;15.55;50.40;94837.31;6227372;23;20028;-79
2022/11/17 13:44:58;;;;;;;3.70;0.75;;;;;;;15.51;51.43;94828.34;6227920;23;20021;-79
2022/11/17 13:47:27;;;;;;;;;;;;;;;15.53;52.20;94834.16;6227096;23;20524;-77
2022/11/17 13:50:32;;;;;;;2.75;0.85;;;;;;;15.52;52.30;94827.28;6227198;23;19971;-78
2022/11/17 13:53:02;;;;;;;6.93;1.17;;;;;;;15.50;51.97;94820.72;6220338;23;20025;-78
2022/11/17 13:55:30;;;;;;;6.43;1.30;;;;;;;15.48;50.51;94828.88;6226037;23;20024;-76
2022/11/17 13:57:59;;;;;;;6.25;1.40;;;;;;;15.45;51.30;94821.50;6224625;23;20044;-80
2022/11/17 14:00:29;;;;;;;3.67;1.25;;;;;;;15.41;51.37;94825.66;6224834;23;20471;-76
2022/11/17 14:02:59;;;;;;;5.53;1.30;;;;;;;15.36;50.53;94830.91;6224826;23;20059;-77
2022/11/17 14:05:30;;;;;;;5.60;1.65;;;;;;;15.29;50.94;94825.09;6226062;23;20024;-77
2022/11/17 14:08:10;;;;;;;6.18;1.50;;;;;;;15.22;51.74;94833.19;6225733;23;20076;-77
2022/11/17 14:10:39;;;;;;;12.90;1.27;;;;;;;15.16;51.47;94835.00;6225890;23;20347;-78
2022/11/17 14:13:27;;;;;;;5.88;1.40;;;;;;;15.11;51.37;94836.78;6225532;23;20172;-75
2022/11/17 14:15:57;;;;;;;4.38;1.25;;;;;;;15.04;51.97;94837.81;6225861;23;20020;-75
2022/11/17 14:18:28;;;;;;;4.78;1.27;;;;;;;14.97;51.95;94841.69;6225792;23;20100;-78
2022/11/17 14:21:13;;;;;;;4.57;1.02;;;;;;;14.91;52.63;94838.25;6227094;23;20077;-76
2022/11/17 14:23:41;;;;;;;8.15;1.65;;;;;;;14.86;51.57;94842.66;6225896;23;20025;-77
2022/11/17 14:26:21;;;;;;;4.80;1.08;;;;;;;14.80;52.40;94837.41;6225010;23;20032;-78
2022/11/17 14:28:50;;;;;;;5.82;1.25;;;;;;;14.76;53.23;94836.31;6224883;23;20062;-78
2022/11/17 14:31:18;;;;;;;4.90;1.40;;;;;;;14.72;53.65;94843.09;6224731;23;20411;-77
2022/11/17 14:33:46;;;;;;;5.50;1.42;;;;;;;14.69;52.89;94840.97;6225397;23;20025;-76
2022/11/17 14:36:17;;;;;;;4.07;1.15;;;;;;;14.64;53.49;94838.31;6225531;23;20453;-78
2022/11/17 14:38:45;;;;;;;4.90;1.63;;;;;;;14.60;54.02;94837.22;6225031;23;20020;-75
2022/11/17 14:41:14;;;;;;;3.60;1.00;;;;;;;14.56;54.56;94830.88;6223837;23;20495;-79
2022/11/17 14:43:42;;;;;;;6.18;1.80;;;;;;;14.53;54.63;94833.97;6224540;23;20031;-77
2022/11/17 14:46:22;;;;;;;8.45;1.73;;;;;;;14.49;54.79;94828.44;6225632;23;20024;-77
2022/11/17 14:48:50;;;;;;;7.43;1.90;;;;;;;14.45;53.86;94829.97;6224348;23;20031;-76
2022/11/17 14:51:20;;;;;;;4.05;1.15;;;;;;;14.41;53.47;94827.06;6224052;23;20047;-75
2022/11/17 14:53:48;;;;;;;6.63;1.55;;;;;;;14.35;53.14;94819.41;6225284;23;20296;-77
2022/11/17 14:56:17;;;;;;;7.80;1.40;;;;;;;14.28;52.86;94816.97;6224882;23;20017;-76
2022/11/17 14:58:47;;;;;;;6.50;1.38;;;;;;;14.23;53.58;94816.91;6224043;23;20043;-77
2022/11/17 15:01:17;;;;;;;6.05;1.75;;;;;;;14.18;54.16;94822.13;6224208;23;20020;-76
2022/11/17 15:03:45;;;;;;;7.88;2.00;;;;;;;14.15;53.99;94825.25;6223717;23;20031;-77
2022/11/17 15:06:13;;;;;;;10.13;1.40;;;;;;;14.11;54.21;94826.78;6223857;23;20017;-77
2022/11/17 15:08:47;;;;;;;5.70;1.38;;;;;;;14.08;54.51;94822.00;6222098;23;20029;-76
2022/11/17 15:11:17;;;;;;;5.63;1.67;;;;;;;14.02;54.86;94824.59;6221665;23;20024;-76
2022/11/17 15:13:45;;;;;;;9.15;2.17;;;;;;;14.00;54.76;94825.88;6222396;23;20025;-75
2022/11/17 15:16:12;;;;;;;6.38;2.10;;;;;;;13.98;54.52;94826.13;6221549;23;20028;-75
2022/11/17 15:18:40;;;;;;;8.15;2.15;;;;;;;13.94;54.11;94814.53;6222512;23;20076;-75
2022/11/17 15:21:10;;;;;;;6.25;2.10;;;;;;;13.93;55.76;94820.06;6223697;23;20031;-76
2022/11/17 15:23:39;;;;;;;7.55;2.25;;;;;;;13.90;54.21;94815.28;6221505;23;20021;-76
2022/11/17 15:26:11;;;;;;;4.68;1.40;;;;;;;13.87;54.76;94816.56;6221382;23;20021;-77
2022/11/17 15:28:39;;;;;;;9.32;2.40;;;;;;;13.84;54.77;94819.69;6222968;23;20072;-78
2022/11/17 15:31:11;;;;;;;9.70;2.10;;;;;;;13.80;54.75;94824.63;6223321;23;20021;-77
2022/11/17 15:33:42;;;;;;;6.30;1.63;;;;;;;13.78;55.18;94824.06;6225756;22;20047;-81
2022/11/17 15:36:30;;;;;;;5.78;1.65;;;;;;;13.75;55.58;94831.63;6241394;23;20051;-82
2022/11/17 15:39:44;;;;;;;6.30;1.90;;;;;;;13.72;57.31;94832.13;6240286;23;20055;-82
2022/11/17 15:54:50;;;;;;;24.77;6.70;;;;;;;13.51;54.10;94821.41;6203955;23;20025;-81
2022/11/17 15:58:05;;;;;;;14.32;4.68;;;;;;;13.44;54.25;94826.03;6209983;23;20025;-80
2022/11/17 16:01:35;;;;;;;;;;;;;;;13.38;54.44;94822.56;6209131;23;20021;-81
2022/11/17 16:07:13;;;;;;;15.25;4.47;;;;;;;13.15;55.04;94828.75;6209859;23;20024;-81
2022/11/17 16:10:02;;;;;;;13.32;4.03;;;;;;;13.08;55.23;94828.16;6209017;23;20032;-81
2022/11/17 16:15:32;;;;;;;19.27;7.47;;;;;;;12.94;55.53;94832.13;6208414;23;20052;-82
2022/11/17 16:18:12;;;;;;;16.13;7.38;;;;;;;12.84;55.65;94827.53;6208449;23;20028;-81
2022/11/17 16:20:48;;;;;;;12.52;5.60;;;;;;;12.76;55.94;94830.53;6210276;23;20025;-82
2022/11/17 16:23:24;;;;;;;9.50;5.13;;;;;;;12.68;56.22;94818.69;6209464;23;20021;-81
2022/11/17 16:25:59;;;;;;;11.15;5.03;;;;;;;12.62;56.09;94827.47;6208683;23;20041;-82
2022/11/17 16:28:36;;;;;;;14.20;6.45;;;;;;;12.56;55.83;94821.34;6209207;23;20017;-81
2022/11/17 16:31:16;;;;;;;12.82;5.40;;;;;;;12.49;55.81;94825.94;6208898;23;20449;-82
2022/11/17 16:34:09;;;;;;;12.60;4.50;;;;;;;12.43;56.72;94832.13;6213387;23;20043;-81
2022/11/17 16:36:44;;;;;;;15.30;6.32;;;;;;;12.36;57.07;94821.03;6211183;23;20017;-82
2022/11/17 16:39:32;;;;;;;13.82;6.22;;;;;;;12.32;56.71;94822.53;6206780;23;20033;-82
2022/11/17 16:42:06;;;;;;;16.92;7.30;;;;;;;12.21;56.90;94818.94;6206871;23;20105;-82
2022/11/17 16:44:38;;;;;;;20.38;6.32;;;;;;;12.15;57.06;94820.66;6206113;23;20021;-81